sensor_id;sensor_type;location;lat;lon;timestamp;P1;durP1;ratioP1;P2;durP2;ratioP2
37851;SDS011;23691;52.486;4.650;2023-09-19T00:02:04;14.43;;;2.13;;
37851;SDS011;23691;52.486;4.650;2023-09-19T00:04:33;12.57;;;2.15;;
37851;SDS011;23691;52.486;4.650;2023-09-19T00:07:01;13.18;;;2.15;;
37851;SDS011;23691;52.486;4.650;2023-09-19T00:09:29;11.13;;;1.75;;
37851;SDS011;23691;52.486;4.650;2023-09-19T00:11:55;14.40;;;2.40;;
37851;SDS011;23691;52.486;4.650;2023-09-19T00:14:28;12.48;;;2.40;;
37851;SDS011;23691;52.486;4.650;2023-09-19T00:16:54;12.23;;;2.17;;
37851;SDS011;23691;52.486;4.650;2023-09-19T00:19:19;13.73;;;2.78;;
37851;SDS011;23691;52.486;4.650;2023-09-19T00:21:45;14.88;;;2.75;;
37851;SDS011;23691;52.486;4.650;2023-09-19T00:24:12;18.13;;;3.30;;
37851;SDS011;23691;52.486;4.650;2023-09-19T00:26:41;15.75;;;2.63;;
37851;SDS011;23691;52.486;4.650;2023-09-19T00:29:08;12.93;;;2.90;;
37851;SDS011;23691;52.486;4.650;2023-09-19T00:31:34;15.88;;;2.55;;
37851;SDS011;23691;52.486;4.650;2023-09-19T00:34:02;14.52;;;2.70;;
37851;SDS011;23691;52.486;4.650;2023-09-19T00:36:37;12.77;;;3.00;;
37851;SDS011;23691;52.486;4.650;2023-09-19T00:39:05;19.65;;;3.72;;
37851;SDS011;23691;52.486;4.650;2023-09-19T00:41:32;11.75;;;2.67;;
37851;SDS011;23691;52.486;4.650;2023-09-19T00:44:02;16.73;;;2.20;;
37851;SDS011;23691;52.486;4.650;2023-09-19T00:46:29;14.35;;;2.58;;
37851;SDS011;23691;52.486;4.650;2023-09-19T00:48:57;13.07;;;2.50;;
37851;SDS011;23691;52.486;4.650;2023-09-19T00:51:42;15.82;;;2.42;;
37851;SDS011;23691;52.486;4.650;2023-09-19T00:54:12;17.67;;;2.60;;
37851;SDS011;23691;52.486;4.650;2023-09-19T00:56:44;16.67;;;3.17;;
37851;SDS011;23691;52.486;4.650;2023-09-19T00:59:13;14.40;;;2.80;;
37851;SDS011;23691;52.486;4.650;2023-09-19T01:01:40;15.40;;;2.90;;
37851;SDS011;23691;52.486;4.650;2023-09-19T01:04:10;15.95;;;3.00;;
37851;SDS011;23691;52.486;4.650;2023-09-19T01:06:35;15.07;;;2.95;;
37851;SDS011;23691;52.486;4.650;2023-09-19T01:09:01;11.68;;;2.45;;
37851;SDS011;23691;52.486;4.650;2023-09-19T01:11:35;14.52;;;2.63;;
37851;SDS011;23691;52.486;4.650;2023-09-19T01:16:44;21.38;;;3.80;;
37851;SDS011;23691;52.486;4.650;2023-09-19T01:28:14;12.63;;;2.53;;
37851;SDS011;23691;52.486;4.650;2023-09-19T01:30:52;13.68;;;3.08;;
37851;SDS011;23691;52.486;4.650;2023-09-19T01:33:23;21.10;;;3.85;;
37851;SDS011;23691;52.486;4.650;2023-09-19T01:35:52;17.13;;;3.17;;
37851;SDS011;23691;52.486;4.650;2023-09-19T01:38:18;17.23;;;3.78;;
37851;SDS011;23691;52.486;4.650;2023-09-19T01:40:49;17.20;;;2.90;;
37851;SDS011;23691;52.486;4.650;2023-09-19T01:43:33;15.32;;;2.28;;
37851;SDS011;23691;52.486;4.650;2023-09-19T01:46:11;17.90;;;2.40;;
37851;SDS011;23691;52.486;4.650;2023-09-19T01:48:54;15.38;;;2.03;;
37851;SDS011;23691;52.486;4.650;2023-09-19T01:52:14;11.95;;;2.40;;
37851;SDS011;23691;52.486;4.650;2023-09-19T01:54:33;14.95;;;2.08;;
37851;SDS011;23691;52.486;4.650;2023-09-19T01:57:08;12.35;;;1.90;;
37851;SDS011;23691;52.486;4.650;2023-09-19T01:59:50;17.80;;;2.78;;
37851;SDS011;23691;52.486;4.650;2023-09-19T02:02:19;20.50;;;3.40;;
37851;SDS011;23691;52.486;4.650;2023-09-19T02:04:48;21.70;;;3.75;;
37851;SDS011;23691;52.486;4.650;2023-09-19T02:07:15;16.83;;;3.03;;
37851;SDS011;23691;52.486;4.650;2023-09-19T02:09:42;19.17;;;2.92;;
37851;SDS011;23691;52.486;4.650;2023-09-19T02:12:11;21.95;;;3.75;;
37851;SDS011;23691;52.486;4.650;2023-09-19T02:14:36;16.25;;;3.15;;
37851;SDS011;23691;52.486;4.650;2023-09-19T02:17:02;19.45;;;2.78;;
37851;SDS011;23691;52.486;4.650;2023-09-19T02:19:36;11.57;;;2.05;;
37851;SDS011;23691;52.486;4.650;2023-09-19T02:22:04;18.33;;;2.50;;
37851;SDS011;23691;52.486;4.650;2023-09-19T02:24:38;12.90;;;2.13;;
37851;SDS011;23691;52.486;4.650;2023-09-19T02:27:08;13.43;;;1.90;;
37851;SDS011;23691;52.486;4.650;2023-09-19T02:29:37;16.20;;;2.33;;
37851;SDS011;23691;52.486;4.650;2023-09-19T02:32:03;13.05;;;2.47;;
37851;SDS011;23691;52.486;4.650;2023-09-19T02:34:29;15.18;;;2.78;;
37851;SDS011;23691;52.486;4.650;2023-09-19T02:37:06;13.93;;;2.70;;
37851;SDS011;23691;52.486;4.650;2023-09-19T02:39:32;21.30;;;3.60;;
37851;SDS011;23691;52.486;4.650;2023-09-19T02:41:58;18.35;;;3.13;;
37851;SDS011;23691;52.486;4.650;2023-09-19T02:44:24;17.08;;;3.30;;
37851;SDS011;23691;52.486;4.650;2023-09-19T02:46:50;16.33;;;2.67;;
37851;SDS011;23691;52.486;4.650;2023-09-19T02:49:23;15.73;;;2.90;;
37851;SDS011;23691;52.486;4.650;2023-09-19T02:51:48;14.10;;;2.60;;
37851;SDS011;23691;52.486;4.650;2023-09-19T02:54:16;20.80;;;3.75;;
37851;SDS011;23691;52.486;4.650;2023-09-19T02:56:42;18.83;;;3.05;;
37851;SDS011;23691;52.486;4.650;2023-09-19T02:59:08;20.85;;;3.70;;
37851;SDS011;23691;52.486;4.650;2023-09-19T03:01:35;18.17;;;3.60;;
37851;SDS011;23691;52.486;4.650;2023-09-19T03:04:02;17.13;;;3.53;;
37851;SDS011;23691;52.486;4.650;2023-09-19T03:06:27;22.80;;;4.15;;
37851;SDS011;23691;52.486;4.650;2023-09-19T03:08:56;20.98;;;3.80;;
37851;SDS011;23691;52.486;4.650;2023-09-19T03:11:25;26.45;;;4.20;;
37851;SDS011;23691;52.486;4.650;2023-09-19T03:13:54;18.88;;;3.58;;
37851;SDS011;23691;52.486;4.650;2023-09-19T03:16:23;18.13;;;3.20;;
37851;SDS011;23691;52.486;4.650;2023-09-19T03:18:48;16.42;;;2.92;;
37851;SDS011;23691;52.486;4.650;2023-09-19T03:21:14;13.00;;;2.55;;
37851;SDS011;23691;52.486;4.650;2023-09-19T03:23:40;15.10;;;2.47;;
37851;SDS011;23691;52.486;4.650;2023-09-19T03:26:06;23.90;;;3.65;;
37851;SDS011;23691;52.486;4.650;2023-09-19T03:28:33;19.75;;;3.83;;
37851;SDS011;23691;52.486;4.650;2023-09-19T03:31:03;18.48;;;3.15;;
37851;SDS011;23691;52.486;4.650;2023-09-19T03:33:35;21.80;;;3.15;;
37851;SDS011;23691;52.486;4.650;2023-09-19T03:36:01;18.05;;;2.40;;
37851;SDS011;23691;52.486;4.650;2023-09-19T03:38:31;17.50;;;2.53;;
37851;SDS011;23691;52.486;4.650;2023-09-19T03:40:58;17.58;;;3.25;;
37851;SDS011;23691;52.486;4.650;2023-09-19T03:43:24;18.85;;;2.78;;
37851;SDS011;23691;52.486;4.650;2023-09-19T03:45:49;14.27;;;2.40;;
37851;SDS011;23691;52.486;4.650;2023-09-19T03:48:16;19.42;;;3.25;;
37851;SDS011;23691;52.486;4.650;2023-09-19T03:50:44;18.52;;;3.85;;
37851;SDS011;23691;52.486;4.650;2023-09-19T03:53:10;14.52;;;2.72;;
37851;SDS011;23691;52.486;4.650;2023-09-19T03:55:38;15.70;;;2.60;;
37851;SDS011;23691;52.486;4.650;2023-09-19T03:58:06;19.67;;;3.35;;
37851;SDS011;23691;52.486;4.650;2023-09-19T04:00:32;17.50;;;2.92;;
37851;SDS011;23691;52.486;4.650;2023-09-19T04:02:59;19.75;;;3.30;;
37851;SDS011;23691;52.486;4.650;2023-09-19T04:05:27;15.70;;;2.92;;
37851;SDS011;23691;52.486;4.650;2023-09-19T04:07:55;18.95;;;3.72;;
37851;SDS011;23691;52.486;4.650;2023-09-19T04:10:26;16.63;;;3.10;;
37851;SDS011;23691;52.486;4.650;2023-09-19T04:12:52;15.65;;;3.10;;
37851;SDS011;23691;52.486;4.650;2023-09-19T04:15:18;20.23;;;2.70;;
37851;SDS011;23691;52.486;4.650;2023-09-19T04:17:44;20.20;;;3.40;;
37851;SDS011;23691;52.486;4.650;2023-09-19T04:20:12;21.02;;;3.80;;
37851;SDS011;23691;52.486;4.650;2023-09-19T04:22:41;13.88;;;3.08;;
37851;SDS011;23691;52.486;4.650;2023-09-19T04:25:09;14.70;;;2.75;;
37851;SDS011;23691;52.486;4.650;2023-09-19T04:27:35;13.07;;;2.72;;
37851;SDS011;23691;52.486;4.650;2023-09-19T04:30:00;12.55;;;2.00;;
37851;SDS011;23691;52.486;4.650;2023-09-19T04:32:34;12.98;;;2.13;;
37851;SDS011;23691;52.486;4.650;2023-09-19T04:35:08;10.02;;;2.17;;
37851;SDS011;23691;52.486;4.650;2023-09-19T04:37:38;13.93;;;2.20;;
37851;SDS011;23691;52.486;4.650;2023-09-19T04:40:07;12.75;;;2.38;;
37851;SDS011;23691;52.486;4.650;2023-09-19T04:42:43;14.13;;;2.30;;
37851;SDS011;23691;52.486;4.650;2023-09-19T04:45:09;19.10;;;3.53;;
37851;SDS011;23691;52.486;4.650;2023-09-19T04:47:41;14.88;;;2.75;;
37851;SDS011;23691;52.486;4.650;2023-09-19T04:50:09;16.73;;;3.20;;
37851;SDS011;23691;52.486;4.650;2023-09-19T04:52:41;17.08;;;3.35;;
37851;SDS011;23691;52.486;4.650;2023-09-19T04:55:12;15.05;;;2.90;;
37851;SDS011;23691;52.486;4.650;2023-09-19T04:57:47;8.65;;;1.80;;
37851;SDS011;23691;52.486;4.650;2023-09-19T05:00:26;16.67;;;2.13;;
37851;SDS011;23691;52.486;4.650;2023-09-19T05:02:55;12.15;;;2.40;;
37851;SDS011;23691;52.486;4.650;2023-09-19T05:05:22;19.40;;;3.45;;
37851;SDS011;23691;52.486;4.650;2023-09-19T05:07:49;14.98;;;2.78;;
37851;SDS011;23691;52.486;4.650;2023-09-19T05:10:14;16.65;;;3.20;;
37851;SDS011;23691;52.486;4.650;2023-09-19T05:12:47;18.13;;;3.50;;
37851;SDS011;23691;52.486;4.650;2023-09-19T05:15:19;13.52;;;2.85;;
37851;SDS011;23691;52.486;4.650;2023-09-19T05:20:16;13.23;;;2.50;;
37851;SDS011;23691;52.486;4.650;2023-09-19T05:25:39;19.20;;;3.20;;
37851;SDS011;23691;52.486;4.650;2023-09-19T05:28:05;13.43;;;2.45;;
37851;SDS011;23691;52.486;4.650;2023-09-19T05:30:32;16.03;;;3.13;;
37851;SDS011;23691;52.486;4.650;2023-09-19T05:32:58;20.50;;;4.00;;
37851;SDS011;23691;52.486;4.650;2023-09-19T05:35:27;16.17;;;3.70;;
37851;SDS011;23691;52.486;4.650;2023-09-19T05:37:53;17.20;;;3.90;;
37851;SDS011;23691;52.486;4.650;2023-09-19T05:40:20;22.88;;;4.30;;
37851;SDS011;23691;52.486;4.650;2023-09-19T05:42:46;19.35;;;3.03;;
37851;SDS011;23691;52.486;4.650;2023-09-19T05:45:12;20.50;;;2.95;;
37851;SDS011;23691;52.486;4.650;2023-09-19T05:47:38;16.38;;;2.90;;
37851;SDS011;23691;52.486;4.650;2023-09-19T05:50:13;16.92;;;3.25;;
37851;SDS011;23691;52.486;4.650;2023-09-19T05:52:52;21.95;;;3.67;;
37851;SDS011;23691;52.486;4.650;2023-09-19T05:55:19;16.10;;;3.33;;
37851;SDS011;23691;52.486;4.650;2023-09-19T05:57:52;16.80;;;2.60;;
37851;SDS011;23691;52.486;4.650;2023-09-19T06:00:18;12.35;;;2.65;;
37851;SDS011;23691;52.486;4.650;2023-09-19T06:02:51;21.63;;;2.95;;
37851;SDS011;23691;52.486;4.650;2023-09-19T06:05:17;17.77;;;3.40;;
37851;SDS011;23691;52.486;4.650;2023-09-19T06:07:46;15.55;;;3.20;;
37851;SDS011;23691;52.486;4.650;2023-09-19T06:10:12;17.83;;;3.55;;
37851;SDS011;23691;52.486;4.650;2023-09-19T06:12:44;20.58;;;4.38;;
37851;SDS011;23691;52.486;4.650;2023-09-19T06:15:10;14.35;;;3.05;;
37851;SDS011;23691;52.486;4.650;2023-09-19T06:17:50;13.18;;;2.78;;
37851;SDS011;23691;52.486;4.650;2023-09-19T06:20:17;19.00;;;3.10;;
37851;SDS011;23691;52.486;4.650;2023-09-19T06:25:11;19.65;;;2.95;;
37851;SDS011;23691;52.486;4.650;2023-09-19T06:27:42;17.42;;;3.13;;
37851;SDS011;23691;52.486;4.650;2023-09-19T06:30:12;17.13;;;3.15;;
37851;SDS011;23691;52.486;4.650;2023-09-19T06:32:40;15.82;;;2.95;;
37851;SDS011;23691;52.486;4.650;2023-09-19T06:35:16;16.77;;;3.75;;
37851;SDS011;23691;52.486;4.650;2023-09-19T06:37:42;16.90;;;3.42;;
37851;SDS011;23691;52.486;4.650;2023-09-19T06:40:14;16.58;;;3.28;;
37851;SDS011;23691;52.486;4.650;2023-09-19T06:45:13;18.13;;;3.53;;
37851;SDS011;23691;52.486;4.650;2023-09-19T06:47:50;16.55;;;3.17;;
37851;SDS011;23691;52.486;4.650;2023-09-19T06:50:20;19.13;;;3.83;;
37851;SDS011;23691;52.486;4.650;2023-09-19T06:52:50;20.48;;;3.30;;
37851;SDS011;23691;52.486;4.650;2023-09-19T06:55:18;15.73;;;2.83;;
37851;SDS011;23691;52.486;4.650;2023-09-19T06:57:45;18.95;;;3.20;;
37851;SDS011;23691;52.486;4.650;2023-09-19T07:00:11;16.88;;;3.20;;
37851;SDS011;23691;52.486;4.650;2023-09-19T07:03:02;18.48;;;2.90;;
37851;SDS011;23691;52.486;4.650;2023-09-19T07:05:35;22.30;;;3.28;;
37851;SDS011;23691;52.486;4.650;2023-09-19T07:08:07;14.30;;;2.78;;
37851;SDS011;23691;52.486;4.650;2023-09-19T07:10:36;14.50;;;3.05;;
37851;SDS011;23691;52.486;4.650;2023-09-19T07:13:05;17.85;;;2.97;;
37851;SDS011;23691;52.486;4.650;2023-09-19T07:15:39;22.42;;;3.03;;
37851;SDS011;23691;52.486;4.650;2023-09-19T07:18:06;20.85;;;3.58;;
37851;SDS011;23691;52.486;4.650;2023-09-19T07:20:36;21.13;;;4.13;;
37851;SDS011;23691;52.486;4.650;2023-09-19T07:23:05;19.33;;;3.60;;
37851;SDS011;23691;52.486;4.650;2023-09-19T07:25:31;16.58;;;2.70;;
37851;SDS011;23691;52.486;4.650;2023-09-19T07:27:59;21.20;;;3.50;;
37851;SDS011;23691;52.486;4.650;2023-09-19T07:30:31;16.52;;;3.33;;
37851;SDS011;23691;52.486;4.650;2023-09-19T07:32:58;25.05;;;3.60;;
37851;SDS011;23691;52.486;4.650;2023-09-19T07:35:25;19.23;;;3.53;;
37851;SDS011;23691;52.486;4.650;2023-09-19T07:37:52;21.13;;;3.70;;
37851;SDS011;23691;52.486;4.650;2023-09-19T07:40:20;17.60;;;3.50;;
37851;SDS011;23691;52.486;4.650;2023-09-19T07:43:02;27.63;;;3.83;;
37851;SDS011;23691;52.486;4.650;2023-09-19T07:45:32;14.32;;;3.17;;
37851;SDS011;23691;52.486;4.650;2023-09-19T07:48:18;19.50;;;2.97;;
37851;SDS011;23691;52.486;4.650;2023-09-19T07:50:43;21.38;;;2.72;;
37851;SDS011;23691;52.486;4.650;2023-09-19T07:53:12;17.90;;;3.47;;
37851;SDS011;23691;52.486;4.650;2023-09-19T07:55:42;21.67;;;4.07;;
37851;SDS011;23691;52.486;4.650;2023-09-19T07:58:08;18.92;;;3.53;;
37851;SDS011;23691;52.486;4.650;2023-09-19T08:00:34;18.05;;;4.20;;
37851;SDS011;23691;52.486;4.650;2023-09-19T08:03:00;18.08;;;3.53;;
37851;SDS011;23691;52.486;4.650;2023-09-19T08:05:26;13.60;;;3.40;;
37851;SDS011;23691;52.486;4.650;2023-09-19T08:07:51;14.98;;;3.15;;
37851;SDS011;23691;52.486;4.650;2023-09-19T08:10:17;16.63;;;3.25;;
37851;SDS011;23691;52.486;4.650;2023-09-19T08:12:44;14.70;;;2.63;;
37851;SDS011;23691;52.486;4.650;2023-09-19T08:15:18;16.63;;;2.90;;
37851;SDS011;23691;52.486;4.650;2023-09-19T08:17:45;18.85;;;3.25;;
37851;SDS011;23691;52.486;4.650;2023-09-19T08:20:11;19.48;;;3.22;;
37851;SDS011;23691;52.486;4.650;2023-09-19T08:22:50;16.05;;;3.10;;
37851;SDS011;23691;52.486;4.650;2023-09-19T08:25:22;17.20;;;2.88;;
37851;SDS011;23691;52.486;4.650;2023-09-19T08:27:50;14.50;;;3.17;;
37851;SDS011;23691;52.486;4.650;2023-09-19T08:30:16;19.00;;;3.13;;
37851;SDS011;23691;52.486;4.650;2023-09-19T08:32:43;15.50;;;3.40;;
37851;SDS011;23691;52.486;4.650;2023-09-19T08:35:09;17.70;;;3.20;;
37851;SDS011;23691;52.486;4.650;2023-09-19T08:37:35;19.77;;;3.20;;
37851;SDS011;23691;52.486;4.650;2023-09-19T08:40:01;20.08;;;3.47;;
37851;SDS011;23691;52.486;4.650;2023-09-19T08:42:27;18.38;;;2.95;;
37851;SDS011;23691;52.486;4.650;2023-09-19T08:44:52;15.02;;;2.92;;
37851;SDS011;23691;52.486;4.650;2023-09-19T08:47:23;16.15;;;2.88;;
37851;SDS011;23691;52.486;4.650;2023-09-19T08:50:11;17.45;;;2.53;;
37851;SDS011;23691;52.486;4.650;2023-09-19T08:52:44;16.02;;;2.70;;
37851;SDS011;23691;52.486;4.650;2023-09-19T08:55:12;17.70;;;2.55;;
37851;SDS011;23691;52.486;4.650;2023-09-19T08:57:45;15.45;;;2.58;;
37851;SDS011;23691;52.486;4.650;2023-09-19T09:00:14;16.50;;;2.45;;
37851;SDS011;23691;52.486;4.650;2023-09-19T09:02:42;18.02;;;2.53;;
37851;SDS011;23691;52.486;4.650;2023-09-19T09:05:09;17.08;;;2.65;;
37851;SDS011;23691;52.486;4.650;2023-09-19T09:07:37;12.02;;;2.17;;
37851;SDS011;23691;52.486;4.650;2023-09-19T09:10:03;14.55;;;2.42;;
37851;SDS011;23691;52.486;4.650;2023-09-19T09:12:29;18.88;;;3.00;;
37851;SDS011;23691;52.486;4.650;2023-09-19T09:14:55;15.18;;;2.33;;
37851;SDS011;23691;52.486;4.650;2023-09-19T09:17:24;15.05;;;2.47;;
37851;SDS011;23691;52.486;4.650;2023-09-19T09:22:18;15.65;;;2.88;;
37851;SDS011;23691;52.486;4.650;2023-09-19T09:24:52;17.10;;;2.45;;
37851;SDS011;23691;52.486;4.650;2023-09-19T09:27:19;17.77;;;2.60;;
37851;SDS011;23691;52.486;4.650;2023-09-19T09:29:45;16.75;;;2.95;;
37851;SDS011;23691;52.486;4.650;2023-09-19T09:34:57;15.35;;;2.83;;
37851;SDS011;23691;52.486;4.650;2023-09-19T09:37:23;14.45;;;2.63;;
37851;SDS011;23691;52.486;4.650;2023-09-19T09:40:02;19.45;;;2.90;;
37851;SDS011;23691;52.486;4.650;2023-09-19T09:42:39;20.60;;;3.08;;
37851;SDS011;23691;52.486;4.650;2023-09-19T09:45:19;14.05;;;2.90;;
37851;SDS011;23691;52.486;4.650;2023-09-19T09:47:53;16.13;;;2.88;;
37851;SDS011;23691;52.486;4.650;2023-09-19T09:53:21;16.52;;;2.95;;
37851;SDS011;23691;52.486;4.650;2023-09-19T09:58:25;15.93;;;2.97;;
37851;SDS011;23691;52.486;4.650;2023-09-19T10:00:54;17.55;;;2.83;;
37851;SDS011;23691;52.486;4.650;2023-09-19T10:03:23;14.23;;;2.90;;
37851;SDS011;23691;52.486;4.650;2023-09-19T10:05:59;23.25;;;3.50;;
37851;SDS011;23691;52.486;4.650;2023-09-19T10:08:27;17.70;;;3.15;;
37851;SDS011;23691;52.486;4.650;2023-09-19T10:10:56;16.52;;;3.10;;
37851;SDS011;23691;52.486;4.650;2023-09-19T10:13:29;24.15;;;3.50;;
37851;SDS011;23691;52.486;4.650;2023-09-19T10:15:56;16.00;;;2.58;;
37851;SDS011;23691;52.486;4.650;2023-09-19T10:18:24;19.42;;;2.75;;
37851;SDS011;23691;52.486;4.650;2023-09-19T10:20:52;17.73;;;2.72;;
37851;SDS011;23691;52.486;4.650;2023-09-19T10:23:20;18.13;;;2.85;;
37851;SDS011;23691;52.486;4.650;2023-09-19T10:25:51;23.92;;;3.70;;
37851;SDS011;23691;52.486;4.650;2023-09-19T10:28:17;20.05;;;2.90;;
37851;SDS011;23691;52.486;4.650;2023-09-19T10:30:50;17.58;;;3.17;;
37851;SDS011;23691;52.486;4.650;2023-09-19T10:33:17;17.98;;;2.90;;
37851;SDS011;23691;52.486;4.650;2023-09-19T10:35:46;16.38;;;2.70;;
37851;SDS011;23691;52.486;4.650;2023-09-19T10:38:13;15.65;;;3.10;;
37851;SDS011;23691;52.486;4.650;2023-09-19T10:40:43;17.67;;;3.22;;
37851;SDS011;23691;52.486;4.650;2023-09-19T10:43:15;21.58;;;3.00;;
37851;SDS011;23691;52.486;4.650;2023-09-19T10:45:43;18.10;;;2.70;;
37851;SDS011;23691;52.486;4.650;2023-09-19T10:48:10;14.73;;;2.73;;
37851;SDS011;23691;52.486;4.650;2023-09-19T10:50:41;20.43;;;2.97;;
37851;SDS011;23691;52.486;4.650;2023-09-19T10:53:10;16.77;;;2.40;;
37851;SDS011;23691;52.486;4.650;2023-09-19T10:55:37;15.40;;;2.40;;
37851;SDS011;23691;52.486;4.650;2023-09-19T10:58:04;14.05;;;2.25;;
37851;SDS011;23691;52.486;4.650;2023-09-19T11:00:56;12.77;;;2.50;;
37851;SDS011;23691;52.486;4.650;2023-09-19T11:03:27;18.92;;;2.88;;
37851;SDS011;23691;52.486;4.650;2023-09-19T11:08:29;16.77;;;2.72;;
37851;SDS011;23691;52.486;4.650;2023-09-19T11:10:57;15.10;;;2.83;;
37851;SDS011;23691;52.486;4.650;2023-09-19T11:13:25;16.55;;;2.78;;
37851;SDS011;23691;52.486;4.650;2023-09-19T11:26:44;17.30;;;2.90;;
37851;SDS011;23691;52.486;4.650;2023-09-19T11:29:30;14.95;;;2.40;;
37851;SDS011;23691;52.486;4.650;2023-09-19T11:31:58;17.38;;;2.80;;
37851;SDS011;23691;52.486;4.650;2023-09-19T11:40:05;18.33;;;3.30;;
37851;SDS011;23691;52.486;4.650;2023-09-19T11:42:41;21.80;;;3.20;;
37851;SDS011;23691;52.486;4.650;2023-09-19T11:45:09;14.55;;;2.58;;
37851;SDS011;23691;52.486;4.650;2023-09-19T11:48:15;22.33;;;3.10;;
37851;SDS011;23691;52.486;4.650;2023-09-19T11:50:46;18.50;;;3.17;;
37851;SDS011;23691;52.486;4.650;2023-09-19T11:53:16;18.02;;;2.90;;
37851;SDS011;23691;52.486;4.650;2023-09-19T11:55:42;15.85;;;2.72;;
37851;SDS011;23691;52.486;4.650;2023-09-19T11:58:11;15.93;;;2.67;;
37851;SDS011;23691;52.486;4.650;2023-09-19T12:00:39;12.70;;;2.30;;
37851;SDS011;23691;52.486;4.650;2023-09-19T12:03:09;14.18;;;2.53;;
37851;SDS011;23691;52.486;4.650;2023-09-19T12:05:36;14.48;;;2.42;;
37851;SDS011;23691;52.486;4.650;2023-09-19T12:08:04;17.23;;;2.40;;
37851;SDS011;23691;52.486;4.650;2023-09-19T12:10:33;16.23;;;3.05;;
37851;SDS011;23691;52.486;4.650;2023-09-19T12:13:09;21.30;;;3.63;;
37851;SDS011;23691;52.486;4.650;2023-09-19T12:15:37;16.20;;;2.90;;
37851;SDS011;23691;52.486;4.650;2023-09-19T12:20:43;17.60;;;2.90;;
37851;SDS011;23691;52.486;4.650;2023-09-19T12:23:17;20.77;;;3.25;;
37851;SDS011;23691;52.486;4.650;2023-09-19T12:25:44;15.30;;;2.78;;
37851;SDS011;23691;52.486;4.650;2023-09-19T12:30:38;17.52;;;2.70;;
37851;SDS011;23691;52.486;4.650;2023-09-19T12:33:14;22.00;;;3.55;;
37851;SDS011;23691;52.486;4.650;2023-09-19T12:35:51;16.80;;;3.00;;
37851;SDS011;23691;52.486;4.650;2023-09-19T12:38:24;22.08;;;3.25;;
37851;SDS011;23691;52.486;4.650;2023-09-19T12:41:01;19.40;;;3.22;;
37851;SDS011;23691;52.486;4.650;2023-09-19T12:43:30;23.83;;;3.55;;
37851;SDS011;23691;52.486;4.650;2023-09-19T12:45:59;24.17;;;3.85;;
37851;SDS011;23691;52.486;4.650;2023-09-19T12:48:25;20.42;;;3.55;;
37851;SDS011;23691;52.486;4.650;2023-09-19T12:51:02;28.85;;;4.75;;
37851;SDS011;23691;52.486;4.650;2023-09-19T12:53:41;19.80;;;3.45;;
37851;SDS011;23691;52.486;4.650;2023-09-19T12:56:13;20.58;;;3.78;;
37851;SDS011;23691;52.486;4.650;2023-09-19T12:58:50;16.27;;;3.50;;
37851;SDS011;23691;52.486;4.650;2023-09-19T13:01:23;17.90;;;3.20;;
37851;SDS011;23691;52.486;4.650;2023-09-19T13:04:11;21.83;;;3.90;;
37851;SDS011;23691;52.486;4.650;2023-09-19T13:06:51;24.02;;;3.63;;
37851;SDS011;23691;52.486;4.650;2023-09-19T13:09:21;22.83;;;4.13;;
37851;SDS011;23691;52.486;4.650;2023-09-19T13:11:51;22.02;;;3.45;;
37851;SDS011;23691;52.486;4.650;2023-09-19T13:16:58;25.63;;;4.10;;
37851;SDS011;23691;52.486;4.650;2023-09-19T13:19:46;21.02;;;4.20;;
37851;SDS011;23691;52.486;4.650;2023-09-19T13:25:05;17.65;;;3.55;;
37851;SDS011;23691;52.486;4.650;2023-09-19T13:27:33;20.90;;;4.07;;
37851;SDS011;23691;52.486;4.650;2023-09-19T13:29:58;18.33;;;3.60;;
37851;SDS011;23691;52.486;4.650;2023-09-19T13:32:24;21.58;;;3.97;;
37851;SDS011;23691;52.486;4.650;2023-09-19T13:34:50;24.77;;;4.05;;
37851;SDS011;23691;52.486;4.650;2023-09-19T13:37:16;22.17;;;3.90;;
37851;SDS011;23691;52.486;4.650;2023-09-19T13:39:43;25.48;;;3.88;;
37851;SDS011;23691;52.486;4.650;2023-09-19T13:42:12;21.45;;;3.67;;
37851;SDS011;23691;52.486;4.650;2023-09-19T13:44:38;20.52;;;3.83;;
37851;SDS011;23691;52.486;4.650;2023-09-19T13:47:03;22.15;;;4.03;;
37851;SDS011;23691;52.486;4.650;2023-09-19T13:49:34;29.15;;;4.88;;
37851;SDS011;23691;52.486;4.650;2023-09-19T13:52:03;30.90;;;5.10;;
37851;SDS011;23691;52.486;4.650;2023-09-19T13:54:32;30.90;;;4.63;;
37851;SDS011;23691;52.486;4.650;2023-09-19T13:56:57;22.02;;;4.10;;
37851;SDS011;23691;52.486;4.650;2023-09-19T13:59:23;25.23;;;4.38;;
37851;SDS011;23691;52.486;4.650;2023-09-19T14:01:49;27.05;;;4.60;;
37851;SDS011;23691;52.486;4.650;2023-09-19T14:04:18;26.45;;;5.13;;
37851;SDS011;23691;52.486;4.650;2023-09-19T14:06:44;26.58;;;4.90;;
37851;SDS011;23691;52.486;4.650;2023-09-19T14:09:12;25.08;;;4.78;;
37851;SDS011;23691;52.486;4.650;2023-09-19T14:11:41;29.23;;;5.53;;
37851;SDS011;23691;52.486;4.650;2023-09-19T14:14:07;30.85;;;5.47;;
37851;SDS011;23691;52.486;4.650;2023-09-19T14:16:32;30.30;;;5.75;;
37851;SDS011;23691;52.486;4.650;2023-09-19T14:19:01;32.30;;;5.72;;
37851;SDS011;23691;52.486;4.650;2023-09-19T14:21:26;26.27;;;5.75;;
37851;SDS011;23691;52.486;4.650;2023-09-19T14:23:52;27.42;;;5.07;;
37851;SDS011;23691;52.486;4.650;2023-09-19T14:26:22;26.95;;;5.13;;
37851;SDS011;23691;52.486;4.650;2023-09-19T14:28:51;31.15;;;5.57;;
37851;SDS011;23691;52.486;4.650;2023-09-19T14:31:16;32.85;;;5.88;;
37851;SDS011;23691;52.486;4.650;2023-09-19T14:33:41;29.67;;;5.03;;
37851;SDS011;23691;52.486;4.650;2023-09-19T14:36:08;40.55;;;5.55;;
37851;SDS011;23691;52.486;4.650;2023-09-19T14:38:36;37.80;;;5.95;;
37851;SDS011;23691;52.486;4.650;2023-09-19T14:41:02;34.58;;;5.63;;
37851;SDS011;23691;52.486;4.650;2023-09-19T14:43:31;28.13;;;5.10;;
37851;SDS011;23691;52.486;4.650;2023-09-19T14:45:57;30.75;;;5.82;;
37851;SDS011;23691;52.486;4.650;2023-09-19T14:48:27;32.53;;;5.82;;
37851;SDS011;23691;52.486;4.650;2023-09-19T14:50:53;35.83;;;5.65;;
37851;SDS011;23691;52.486;4.650;2023-09-19T14:53:20;33.83;;;5.90;;
37851;SDS011;23691;52.486;4.650;2023-09-19T14:55:46;30.77;;;5.72;;
37851;SDS011;23691;52.486;4.650;2023-09-19T14:58:13;30.75;;;5.80;;
37851;SDS011;23691;52.486;4.650;2023-09-19T15:00:39;33.53;;;5.72;;
37851;SDS011;23691;52.486;4.650;2023-09-19T15:03:04;29.52;;;5.57;;
37851;SDS011;23691;52.486;4.650;2023-09-19T15:05:31;26.63;;;5.43;;
37851;SDS011;23691;52.486;4.650;2023-09-19T15:07:56;31.65;;;5.38;;
37851;SDS011;23691;52.486;4.650;2023-09-19T15:10:23;31.67;;;5.05;;
37851;SDS011;23691;52.486;4.650;2023-09-19T15:12:50;31.17;;;5.40;;
37851;SDS011;23691;52.486;4.650;2023-09-19T15:15:16;27.10;;;4.72;;
37851;SDS011;23691;52.486;4.650;2023-09-19T15:17:41;36.13;;;6.28;;
37851;SDS011;23691;52.486;4.650;2023-09-19T15:20:07;33.90;;;5.65;;
37851;SDS011;23691;52.486;4.650;2023-09-19T15:22:35;31.13;;;5.65;;
37851;SDS011;23691;52.486;4.650;2023-09-19T15:25:01;31.88;;;5.50;;
37851;SDS011;23691;52.486;4.650;2023-09-19T15:27:29;35.28;;;5.88;;
37851;SDS011;23691;52.486;4.650;2023-09-19T15:29:56;30.35;;;6.55;;
37851;SDS011;23691;52.486;4.650;2023-09-19T15:32:23;36.60;;;5.78;;
37851;SDS011;23691;52.486;4.650;2023-09-19T15:34:49;34.38;;;5.90;;
37851;SDS011;23691;52.486;4.650;2023-09-19T15:37:20;37.95;;;6.30;;
37851;SDS011;23691;52.486;4.650;2023-09-19T15:39:47;37.78;;;6.32;;
37851;SDS011;23691;52.486;4.650;2023-09-19T15:42:14;31.00;;;5.63;;
37851;SDS011;23691;52.486;4.650;2023-09-19T15:44:41;24.37;;;5.27;;
37851;SDS011;23691;52.486;4.650;2023-09-19T15:47:09;37.50;;;5.30;;
37851;SDS011;23691;52.486;4.650;2023-09-19T15:49:34;28.23;;;5.18;;